Banning, CA

7:46 PM PDT on April 28, 2017 (GMT -0700)
Aspen Ln | | Change Station
Active Advisory: Wind Advisory

Elev 2648 ft 33.94 °N, 116.92 °W | Updated 4 seconds ago

Clear
Clear
67.3 °F
Feels Like 67.3 °F
N
7.0
Wind Variable Wind from SSW

Today
High -- | Low -- °F
--% Chance of Precip.
Yesterday
High -- | Low -- °F
Precip. -- in
Pressure 29.73 in
Visibility 10.0 miles
Clouds Clear
Dew Point 18 °F
Humidity 15%
Rainfall 0.00 in
Snow Depth Not available.
6:01 AM 7:29 PM
Waxing Crescent, 10% visible
METAR KRIV 290158Z AUTO 28010KT 10SM CLR 23/00 A2975 RMK AO2 SLP067 T02341000
Pressure 29.73 in
Visibility 10.0 miles
Clouds Clear
Dew Point 18 °F
Humidity 15%
Rainfall 0.00 in
Snow Depth Not available.
6:01 AM 7:29 PM
Waxing Crescent, 10% visible
METAR KRIV 290158Z AUTO 28010KT 10SM CLR 23/00 A2975 RMK AO2 SLP067 T02341000

Get Your Daily Forecast Email!

Thanks for signing up!

Be on the lookout for a verification email in your inbox.

You'll start receiving severe weather alerts in your inbox..

×

10-Day Weather Forecast

Almanac

Astronomy

Apr. 28, 2017 Rise Set
Actual Time
Civil Twilight
Nautical Twilight
Astronomical Twilight
Moon
Length of Visible Light
Length of Day
Tomorrow will be .
, % of the Moon is Illuminated

Today's Extremes

State Highs State Lows

Community

WunderPhotos

WunderBlog® & News

Nearby

Air Quality

  Air Quality AQ Index Pollutant
Not available.

Snow Depth

Station Depth Elevation

Earthquake Activity

City Distance Mag. Time & Date
Minimum magnitude displayed is 2.5.

Coastal Water Temperatures

Place Temperature

Stations

Nearby Weather Stations

Station Location Temp. Windchill Dew Point Humidity Wind Precip. Elev Updated Type
                   

Watches & Warnings

Wind Advisory
Issued: 1:22 PM PDT Apr. 28, 2017 – National Weather Service

... Wind Advisory remains in effect from 10 PM this evening to
2 PM PDT Saturday...

* winds... gusty northeast winds 20 to 30 mph developing overnight with
gusts 35 to 55 mph at times.

* Timing... strongest winds early morning through midday Saturday.

* Location... strongest winds along the coastal mountain slopes,
ridgetops, and immediately below the canyons.

* Impacts... sudden, strong cross-winds, especially for high-
profile vehicles.

* Outlook... winds will diminish rapidly Saturday afternoon.

* Reports... please send reports of strong winds and wind damage
to the National Weather Service via our facebook and twitter
feeds and online.

Precautionary/preparedness actions...

A Wind Advisory means that winds of 35 mph are expected. Winds
this strong can make driving difficult... especially for high
profile vehicles. Use extra caution.



Maxwell